sensor_id;sensor_type;location;lat;lon;timestamp;P1;durP1;ratioP1;P2;durP2;ratioP2
39994;SDS011;25686;51.908;10.418;2023-07-31T00:00:40;5.88;;;2.60;;
39994;SDS011;25686;51.908;10.418;2023-07-31T00:02:41;5.38;;;1.70;;
39994;SDS011;25686;51.908;10.418;2023-07-31T00:04:42;4.05;;;1.88;;
39994;SDS011;25686;51.908;10.418;2023-07-31T00:06:43;3.60;;;1.60;;
39994;SDS011;25686;51.908;10.418;2023-07-31T00:08:44;2.95;;;1.65;;
39994;SDS011;25686;51.908;10.418;2023-07-31T00:10:45;3.85;;;1.48;;
39994;SDS011;25686;51.908;10.418;2023-07-31T00:12:46;6.25;;;1.48;;
39994;SDS011;25686;51.908;10.418;2023-07-31T00:14:47;3.53;;;1.30;;
39994;SDS011;25686;51.908;10.418;2023-07-31T00:16:48;4.50;;;1.30;;
39994;SDS011;25686;51.908;10.418;2023-07-31T00:18:49;2.40;;;1.27;;
39994;SDS011;25686;51.908;10.418;2023-07-31T00:20:50;6.25;;;1.70;;
39994;SDS011;25686;51.908;10.418;2023-07-31T00:22:51;5.60;;;1.80;;
39994;SDS011;25686;51.908;10.418;2023-07-31T00:24:52;6.57;;;1.50;;
39994;SDS011;25686;51.908;10.418;2023-07-31T00:26:53;4.05;;;1.33;;
39994;SDS011;25686;51.908;10.418;2023-07-31T00:28:54;4.47;;;1.58;;
39994;SDS011;25686;51.908;10.418;2023-07-31T00:30:55;5.88;;;1.60;;
39994;SDS011;25686;51.908;10.418;2023-07-31T00:32:56;2.17;;;1.30;;
39994;SDS011;25686;51.908;10.418;2023-07-31T00:34:57;3.80;;;1.63;;
39994;SDS011;25686;51.908;10.418;2023-07-31T00:36:58;3.40;;;1.30;;
39994;SDS011;25686;51.908;10.418;2023-07-31T00:38:59;5.43;;;1.60;;
39994;SDS011;25686;51.908;10.418;2023-07-31T00:41:00;7.82;;;1.20;;
39994;SDS011;25686;51.908;10.418;2023-07-31T00:43:01;3.95;;;1.27;;
39994;SDS011;25686;51.908;10.418;2023-07-31T00:45:03;6.68;;;1.55;;
39994;SDS011;25686;51.908;10.418;2023-07-31T00:47:04;3.55;;;1.20;;
39994;SDS011;25686;51.908;10.418;2023-07-31T00:49:05;3.08;;;1.23;;
39994;SDS011;25686;51.908;10.418;2023-07-31T00:51:07;3.38;;;1.50;;
39994;SDS011;25686;51.908;10.418;2023-07-31T00:53:08;2.53;;;1.00;;
39994;SDS011;25686;51.908;10.418;2023-07-31T00:55:09;3.25;;;1.00;;
39994;SDS011;25686;51.908;10.418;2023-07-31T00:57:10;4.28;;;0.90;;
39994;SDS011;25686;51.908;10.418;2023-07-31T00:59:11;3.15;;;0.88;;
39994;SDS011;25686;51.908;10.418;2023-07-31T01:01:12;1.98;;;1.08;;
39994;SDS011;25686;51.908;10.418;2023-07-31T01:03:13;1.95;;;0.90;;
39994;SDS011;25686;51.908;10.418;2023-07-31T01:05:14;1.40;;;0.60;;
39994;SDS011;25686;51.908;10.418;2023-07-31T01:07:33;1.48;;;0.65;;
39994;SDS011;25686;51.908;10.418;2023-07-31T01:11:53;2.90;;;0.70;;
39994;SDS011;25686;51.908;10.418;2023-07-31T01:13:54;1.38;;;0.70;;
39994;SDS011;25686;51.908;10.418;2023-07-31T01:15:55;1.95;;;0.85;;
39994;SDS011;25686;51.908;10.418;2023-07-31T01:17:56;1.42;;;0.80;;
39994;SDS011;25686;51.908;10.418;2023-07-31T01:19:59;1.40;;;0.60;;
39994;SDS011;25686;51.908;10.418;2023-07-31T01:22:12;2.85;;;1.00;;
39994;SDS011;25686;51.908;10.418;2023-07-31T01:26:19;3.50;;;0.77;;
39994;SDS011;25686;51.908;10.418;2023-07-31T01:28:43;1.17;;;0.60;;
39994;SDS011;25686;51.908;10.418;2023-07-31T01:30:48;1.10;;;0.60;;
39994;SDS011;25686;51.908;10.418;2023-07-31T01:32:49;0.57;;;0.55;;
39994;SDS011;25686;51.908;10.418;2023-07-31T01:34:50;0.80;;;0.60;;
39994;SDS011;25686;51.908;10.418;2023-07-31T01:36:52;0.40;;;0.40;;
39994;SDS011;25686;51.908;10.418;2023-07-31T01:38:57;0.60;;;0.40;;
39994;SDS011;25686;51.908;10.418;2023-07-31T01:40:59;0.85;;;0.60;;
39994;SDS011;25686;51.908;10.418;2023-07-31T01:43:00;0.40;;;0.40;;
39994;SDS011;25686;51.908;10.418;2023-07-31T01:45:01;0.95;;;0.50;;
39994;SDS011;25686;51.908;10.418;2023-07-31T01:47:02;1.10;;;0.47;;
39994;SDS011;25686;51.908;10.418;2023-07-31T01:49:03;1.20;;;0.60;;
39994;SDS011;25686;51.908;10.418;2023-07-31T01:51:05;0.98;;;0.50;;
39994;SDS011;25686;51.908;10.418;2023-07-31T01:53:06;1.90;;;0.60;;
39994;SDS011;25686;51.908;10.418;2023-07-31T01:55:07;3.47;;;0.80;;
39994;SDS011;25686;51.908;10.418;2023-07-31T01:57:08;3.88;;;0.70;;
39994;SDS011;25686;51.908;10.418;2023-07-31T01:59:09;1.52;;;0.75;;
39994;SDS011;25686;51.908;10.418;2023-07-31T02:01:10;2.47;;;1.33;;
39994;SDS011;25686;51.908;10.418;2023-07-31T02:03:11;1.42;;;0.57;;
39994;SDS011;25686;51.908;10.418;2023-07-31T02:05:12;2.08;;;0.52;;
39994;SDS011;25686;51.908;10.418;2023-07-31T02:07:13;2.47;;;0.80;;
39994;SDS011;25686;51.908;10.418;2023-07-31T02:09:14;1.17;;;0.70;;
39994;SDS011;25686;51.908;10.418;2023-07-31T02:11:15;0.43;;;0.43;;
39994;SDS011;25686;51.908;10.418;2023-07-31T02:13:16;0.85;;;0.47;;
39994;SDS011;25686;51.908;10.418;2023-07-31T02:15:17;0.47;;;0.40;;
39994;SDS011;25686;51.908;10.418;2023-07-31T02:17:18;1.23;;;0.50;;
39994;SDS011;25686;51.908;10.418;2023-07-31T02:19:19;0.43;;;0.43;;
39994;SDS011;25686;51.908;10.418;2023-07-31T02:21:20;2.58;;;0.60;;
39994;SDS011;25686;51.908;10.418;2023-07-31T02:23:22;0.98;;;0.40;;
39994;SDS011;25686;51.908;10.418;2023-07-31T02:25:23;1.10;;;0.50;;
39994;SDS011;25686;51.908;10.418;2023-07-31T02:27:24;0.85;;;0.50;;
39994;SDS011;25686;51.908;10.418;2023-07-31T02:29:27;0.77;;;0.40;;
39994;SDS011;25686;51.908;10.418;2023-07-31T02:31:28;1.85;;;0.98;;
39994;SDS011;25686;51.908;10.418;2023-07-31T02:33:29;0.60;;;0.60;;
39994;SDS011;25686;51.908;10.418;2023-07-31T02:35:30;1.00;;;0.57;;
39994;SDS011;25686;51.908;10.418;2023-07-31T02:37:31;0.80;;;0.50;;
39994;SDS011;25686;51.908;10.418;2023-07-31T02:39:32;0.98;;;0.60;;
39994;SDS011;25686;51.908;10.418;2023-07-31T02:41:33;2.22;;;0.70;;
39994;SDS011;25686;51.908;10.418;2023-07-31T02:43:34;0.93;;;0.60;;
39994;SDS011;25686;51.908;10.418;2023-07-31T02:45:35;0.90;;;0.70;;
39994;SDS011;25686;51.908;10.418;2023-07-31T02:47:36;2.00;;;0.70;;
39994;SDS011;25686;51.908;10.418;2023-07-31T02:49:37;1.40;;;1.00;;
39994;SDS011;25686;51.908;10.418;2023-07-31T02:51:38;1.40;;;0.80;;
39994;SDS011;25686;51.908;10.418;2023-07-31T02:53:39;1.70;;;0.90;;
39994;SDS011;25686;51.908;10.418;2023-07-31T02:55:40;1.17;;;1.08;;
39994;SDS011;25686;51.908;10.418;2023-07-31T02:57:41;1.13;;;0.82;;
39994;SDS011;25686;51.908;10.418;2023-07-31T02:59:42;2.13;;;0.93;;
39994;SDS011;25686;51.908;10.418;2023-07-31T03:01:43;1.42;;;1.10;;
39994;SDS011;25686;51.908;10.418;2023-07-31T03:03:44;1.75;;;0.93;;
39994;SDS011;25686;51.908;10.418;2023-07-31T03:05:45;1.30;;;1.00;;
39994;SDS011;25686;51.908;10.418;2023-07-31T03:07:46;3.47;;;1.20;;
39994;SDS011;25686;51.908;10.418;2023-07-31T03:09:47;4.43;;;1.00;;
39994;SDS011;25686;51.908;10.418;2023-07-31T03:11:48;1.42;;;1.00;;
39994;SDS011;25686;51.908;10.418;2023-07-31T03:13:49;1.27;;;1.05;;
39994;SDS011;25686;51.908;10.418;2023-07-31T03:15:50;1.75;;;1.20;;
39994;SDS011;25686;51.908;10.418;2023-07-31T03:17:51;5.07;;;1.40;;
39994;SDS011;25686;51.908;10.418;2023-07-31T03:19:52;3.42;;;1.30;;
39994;SDS011;25686;51.908;10.418;2023-07-31T03:21:53;1.67;;;1.33;;
39994;SDS011;25686;51.908;10.418;2023-07-31T03:23:54;4.18;;;1.17;;
39994;SDS011;25686;51.908;10.418;2023-07-31T03:25:59;3.33;;;1.40;;
39994;SDS011;25686;51.908;10.418;2023-07-31T03:28:00;2.33;;;1.13;;
39994;SDS011;25686;51.908;10.418;2023-07-31T03:30:02;2.75;;;1.20;;
39994;SDS011;25686;51.908;10.418;2023-07-31T03:32:03;1.95;;;1.10;;
39994;SDS011;25686;51.908;10.418;2023-07-31T03:34:04;2.58;;;1.30;;
39994;SDS011;25686;51.908;10.418;2023-07-31T03:36:05;2.47;;;1.38;;
39994;SDS011;25686;51.908;10.418;2023-07-31T03:38:06;3.10;;;1.40;;
39994;SDS011;25686;51.908;10.418;2023-07-31T03:40:07;2.58;;;1.50;;
39994;SDS011;25686;51.908;10.418;2023-07-31T03:42:08;1.60;;;1.33;;
39994;SDS011;25686;51.908;10.418;2023-07-31T03:44:10;5.15;;;1.30;;
39994;SDS011;25686;51.908;10.418;2023-07-31T03:46:10;2.08;;;1.20;;
39994;SDS011;25686;51.908;10.418;2023-07-31T03:48:11;1.35;;;1.10;;
39994;SDS011;25686;51.908;10.418;2023-07-31T03:50:12;2.10;;;1.10;;
39994;SDS011;25686;51.908;10.418;2023-07-31T03:52:13;3.13;;;1.40;;
39994;SDS011;25686;51.908;10.418;2023-07-31T03:54:14;2.95;;;1.10;;
39994;SDS011;25686;51.908;10.418;2023-07-31T03:56:15;1.15;;;1.08;;
39994;SDS011;25686;51.908;10.418;2023-07-31T03:58:16;6.25;;;1.15;;
39994;SDS011;25686;51.908;10.418;2023-07-31T04:00:17;2.25;;;1.20;;
39994;SDS011;25686;51.908;10.418;2023-07-31T04:02:18;3.08;;;1.17;;
39994;SDS011;25686;51.908;10.418;2023-07-31T04:04:19;1.33;;;0.93;;
39994;SDS011;25686;51.908;10.418;2023-07-31T04:06:20;1.02;;;0.88;;
39994;SDS011;25686;51.908;10.418;2023-07-31T04:08:22;1.00;;;0.80;;
39994;SDS011;25686;51.908;10.418;2023-07-31T04:10:23;0.77;;;0.73;;
39994;SDS011;25686;51.908;10.418;2023-07-31T04:12:24;3.33;;;0.90;;
39994;SDS011;25686;51.908;10.418;2023-07-31T04:14:25;1.55;;;0.80;;
39994;SDS011;25686;51.908;10.418;2023-07-31T04:16:26;4.00;;;0.90;;
39994;SDS011;25686;51.908;10.418;2023-07-31T04:18:27;1.35;;;0.70;;
39994;SDS011;25686;51.908;10.418;2023-07-31T04:20:28;1.23;;;0.55;;
39994;SDS011;25686;51.908;10.418;2023-07-31T04:22:29;1.65;;;0.80;;
39994;SDS011;25686;51.908;10.418;2023-07-31T04:24:30;0.90;;;0.70;;
39994;SDS011;25686;51.908;10.418;2023-07-31T04:26:30;0.95;;;0.77;;
39994;SDS011;25686;51.908;10.418;2023-07-31T04:28:32;0.70;;;0.65;;
39994;SDS011;25686;51.908;10.418;2023-07-31T04:30:32;0.77;;;0.60;;
39994;SDS011;25686;51.908;10.418;2023-07-31T04:32:33;0.75;;;0.75;;
39994;SDS011;25686;51.908;10.418;2023-07-31T04:34:35;0.73;;;0.50;;
39994;SDS011;25686;51.908;10.418;2023-07-31T04:36:36;2.35;;;0.65;;
39994;SDS011;25686;51.908;10.418;2023-07-31T04:38:37;0.47;;;0.40;;
39994;SDS011;25686;51.908;10.418;2023-07-31T04:40:38;0.45;;;0.45;;
39994;SDS011;25686;51.908;10.418;2023-07-31T04:42:39;2.50;;;0.68;;
39994;SDS011;25686;51.908;10.418;2023-07-31T04:44:40;1.98;;;0.80;;
39994;SDS011;25686;51.908;10.418;2023-07-31T04:46:41;0.80;;;0.80;;
39994;SDS011;25686;51.908;10.418;2023-07-31T04:48:42;1.25;;;0.90;;
39994;SDS011;25686;51.908;10.418;2023-07-31T04:50:43;1.30;;;0.90;;
39994;SDS011;25686;51.908;10.418;2023-07-31T04:52:44;2.72;;;1.50;;
39994;SDS011;25686;51.908;10.418;2023-07-31T04:54:45;2.53;;;1.65;;
39994;SDS011;25686;51.908;10.418;2023-07-31T04:56:46;2.10;;;1.65;;
39994;SDS011;25686;51.908;10.418;2023-07-31T04:58:47;3.97;;;2.00;;
39994;SDS011;25686;51.908;10.418;2023-07-31T05:00:48;4.30;;;2.33;;
39994;SDS011;25686;51.908;10.418;2023-07-31T05:02:49;4.53;;;2.05;;
39994;SDS011;25686;51.908;10.418;2023-07-31T05:04:50;8.55;;;2.88;;
39994;SDS011;25686;51.908;10.418;2023-07-31T05:06:51;5.90;;;2.97;;
39994;SDS011;25686;51.908;10.418;2023-07-31T05:08:52;6.82;;;2.90;;
39994;SDS011;25686;51.908;10.418;2023-07-31T05:10:53;3.55;;;2.42;;
39994;SDS011;25686;51.908;10.418;2023-07-31T05:12:54;4.93;;;2.35;;
39994;SDS011;25686;51.908;10.418;2023-07-31T05:14:55;5.68;;;2.70;;
39994;SDS011;25686;51.908;10.418;2023-07-31T05:16:56;5.05;;;2.58;;
39994;SDS011;25686;51.908;10.418;2023-07-31T05:18:57;4.90;;;2.85;;
39994;SDS011;25686;51.908;10.418;2023-07-31T05:20:58;7.45;;;2.97;;
39994;SDS011;25686;51.908;10.418;2023-07-31T05:22:59;5.38;;;3.13;;
39994;SDS011;25686;51.908;10.418;2023-07-31T05:25:00;5.93;;;3.05;;
39994;SDS011;25686;51.908;10.418;2023-07-31T05:27:01;8.30;;;3.17;;
39994;SDS011;25686;51.908;10.418;2023-07-31T05:29:02;4.80;;;3.13;;
39994;SDS011;25686;51.908;10.418;2023-07-31T05:31:04;5.75;;;3.50;;
39994;SDS011;25686;51.908;10.418;2023-07-31T05:33:05;7.82;;;3.55;;
39994;SDS011;25686;51.908;10.418;2023-07-31T05:35:06;6.50;;;3.45;;
39994;SDS011;25686;51.908;10.418;2023-07-31T05:37:09;10.23;;;3.50;;
39994;SDS011;25686;51.908;10.418;2023-07-31T05:39:11;6.82;;;3.50;;
39994;SDS011;25686;51.908;10.418;2023-07-31T05:41:12;8.27;;;3.00;;
39994;SDS011;25686;51.908;10.418;2023-07-31T05:43:13;9.88;;;3.90;;
39994;SDS011;25686;51.908;10.418;2023-07-31T05:45:15;4.53;;;3.13;;
39994;SDS011;25686;51.908;10.418;2023-07-31T05:47:16;6.45;;;3.33;;
39994;SDS011;25686;51.908;10.418;2023-07-31T05:49:17;8.10;;;3.30;;
39994;SDS011;25686;51.908;10.418;2023-07-31T05:51:18;6.20;;;3.92;;
39994;SDS011;25686;51.908;10.418;2023-07-31T05:53:18;10.90;;;5.70;;
39994;SDS011;25686;51.908;10.418;2023-07-31T05:55:20;9.82;;;4.10;;
39994;SDS011;25686;51.908;10.418;2023-07-31T05:57:21;6.57;;;4.03;;
39994;SDS011;25686;51.908;10.418;2023-07-31T05:59:22;9.93;;;4.32;;
39994;SDS011;25686;51.908;10.418;2023-07-31T06:01:23;7.43;;;4.03;;
39994;SDS011;25686;51.908;10.418;2023-07-31T06:03:24;7.95;;;3.72;;
39994;SDS011;25686;51.908;10.418;2023-07-31T06:05:24;6.63;;;3.88;;
39994;SDS011;25686;51.908;10.418;2023-07-31T06:07:28;7.90;;;3.60;;
39994;SDS011;25686;51.908;10.418;2023-07-31T06:09:29;3.90;;;3.17;;
39994;SDS011;25686;51.908;10.418;2023-07-31T06:11:30;6.40;;;3.30;;
39994;SDS011;25686;51.908;10.418;2023-07-31T06:13:31;9.18;;;3.15;;
39994;SDS011;25686;51.908;10.418;2023-07-31T06:15:32;6.22;;;3.17;;
39994;SDS011;25686;51.908;10.418;2023-07-31T06:17:33;6.50;;;3.10;;
39994;SDS011;25686;51.908;10.418;2023-07-31T06:19:34;5.72;;;2.60;;
39994;SDS011;25686;51.908;10.418;2023-07-31T06:21:35;6.50;;;3.05;;
39994;SDS011;25686;51.908;10.418;2023-07-31T06:23:37;9.45;;;3.05;;
39994;SDS011;25686;51.908;10.418;2023-07-31T06:25:38;9.50;;;3.25;;
39994;SDS011;25686;51.908;10.418;2023-07-31T06:27:39;6.20;;;3.22;;
39994;SDS011;25686;51.908;10.418;2023-07-31T06:29:40;8.77;;;3.95;;
39994;SDS011;25686;51.908;10.418;2023-07-31T06:31:41;13.88;;;4.03;;
39994;SDS011;25686;51.908;10.418;2023-07-31T06:33:42;9.60;;;4.13;;
39994;SDS011;25686;51.908;10.418;2023-07-31T06:35:43;9.98;;;4.45;;
39994;SDS011;25686;51.908;10.418;2023-07-31T06:37:45;7.80;;;4.50;;
39994;SDS011;25686;51.908;10.418;2023-07-31T06:39:46;19.17;;;4.97;;
39994;SDS011;25686;51.908;10.418;2023-07-31T06:41:47;10.20;;;5.05;;
39994;SDS011;25686;51.908;10.418;2023-07-31T06:43:48;12.93;;;4.85;;
39994;SDS011;25686;51.908;10.418;2023-07-31T06:45:49;13.02;;;5.28;;
39994;SDS011;25686;51.908;10.418;2023-07-31T06:47:51;7.45;;;3.92;;
39994;SDS011;25686;51.908;10.418;2023-07-31T06:49:52;7.97;;;4.30;;
39994;SDS011;25686;51.908;10.418;2023-07-31T06:51:53;16.20;;;4.80;;
39994;SDS011;25686;51.908;10.418;2023-07-31T06:53:54;10.35;;;4.15;;
39994;SDS011;25686;51.908;10.418;2023-07-31T06:55:55;10.23;;;4.78;;
39994;SDS011;25686;51.908;10.418;2023-07-31T06:57:56;12.90;;;4.80;;
39994;SDS011;25686;51.908;10.418;2023-07-31T06:59:57;13.00;;;4.85;;
39994;SDS011;25686;51.908;10.418;2023-07-31T07:01:58;9.57;;;4.40;;
39994;SDS011;25686;51.908;10.418;2023-07-31T07:03:59;12.80;;;5.00;;
39994;SDS011;25686;51.908;10.418;2023-07-31T07:06:00;9.20;;;4.38;;
39994;SDS011;25686;51.908;10.418;2023-07-31T07:08:01;7.95;;;4.47;;
39994;SDS011;25686;51.908;10.418;2023-07-31T07:10:02;10.88;;;4.05;;
39994;SDS011;25686;51.908;10.418;2023-07-31T07:12:03;9.05;;;4.35;;
39994;SDS011;25686;51.908;10.418;2023-07-31T07:14:05;6.40;;;3.67;;
39994;SDS011;25686;51.908;10.418;2023-07-31T07:16:06;8.85;;;3.95;;
39994;SDS011;25686;51.908;10.418;2023-07-31T07:18:07;7.47;;;3.95;;
39994;SDS011;25686;51.908;10.418;2023-07-31T07:20:08;7.43;;;3.65;;
39994;SDS011;25686;51.908;10.418;2023-07-31T07:22:09;11.68;;;3.55;;
39994;SDS011;25686;51.908;10.418;2023-07-31T07:24:10;6.68;;;3.63;;
39994;SDS011;25686;51.908;10.418;2023-07-31T07:26:11;8.43;;;4.00;;
39994;SDS011;25686;51.908;10.418;2023-07-31T07:28:12;9.02;;;3.92;;
39994;SDS011;25686;51.908;10.418;2023-07-31T07:30:13;7.13;;;3.30;;
39994;SDS011;25686;51.908;10.418;2023-07-31T07:32:14;8.68;;;4.03;;
39994;SDS011;25686;51.908;10.418;2023-07-31T07:34:17;9.00;;;3.78;;
39994;SDS011;25686;51.908;10.418;2023-07-31T07:36:18;10.40;;;4.72;;
39994;SDS011;25686;51.908;10.418;2023-07-31T07:38:19;6.82;;;3.60;;
39994;SDS011;25686;51.908;10.418;2023-07-31T07:40:21;8.55;;;3.92;;
39994;SDS011;25686;51.908;10.418;2023-07-31T07:42:22;10.10;;;4.30;;
39994;SDS011;25686;51.908;10.418;2023-07-31T07:44:23;9.80;;;3.83;;
39994;SDS011;25686;51.908;10.418;2023-07-31T07:46:24;13.02;;;4.28;;
39994;SDS011;25686;51.908;10.418;2023-07-31T07:48:25;10.60;;;4.10;;
39994;SDS011;25686;51.908;10.418;2023-07-31T07:50:25;6.07;;;3.60;;
39994;SDS011;25686;51.908;10.418;2023-07-31T07:52:26;8.98;;;3.70;;
39994;SDS011;25686;51.908;10.418;2023-07-31T07:54:28;8.60;;;4.00;;
39994;SDS011;25686;51.908;10.418;2023-07-31T07:56:29;10.75;;;3.88;;
39994;SDS011;25686;51.908;10.418;2023-07-31T07:58:30;8.02;;;3.75;;
39994;SDS011;25686;51.908;10.418;2023-07-31T08:00:31;8.07;;;4.10;;
39994;SDS011;25686;51.908;10.418;2023-07-31T08:02:32;9.82;;;3.85;;
39994;SDS011;25686;51.908;10.418;2023-07-31T08:04:33;9.82;;;3.72;;
39994;SDS011;25686;51.908;10.418;2023-07-31T08:06:34;8.38;;;3.65;;
39994;SDS011;25686;51.908;10.418;2023-07-31T08:08:36;10.95;;;3.75;;
39994;SDS011;25686;51.908;10.418;2023-07-31T08:10:37;8.73;;;3.67;;
39994;SDS011;25686;51.908;10.418;2023-07-31T08:12:38;10.85;;;3.88;;
39994;SDS011;25686;51.908;10.418;2023-07-31T08:14:39;9.25;;;3.90;;
39994;SDS011;25686;51.908;10.418;2023-07-31T08:16:40;8.75;;;3.67;;
39994;SDS011;25686;51.908;10.418;2023-07-31T08:18:41;11.70;;;3.97;;
39994;SDS011;25686;51.908;10.418;2023-07-31T08:20:45;10.52;;;3.83;;
39994;SDS011;25686;51.908;10.418;2023-07-31T08:22:46;6.30;;;3.70;;
39994;SDS011;25686;51.908;10.418;2023-07-31T08:24:47;8.02;;;3.70;;
39994;SDS011;25686;51.908;10.418;2023-07-31T08:26:48;7.35;;;3.42;;
39994;SDS011;25686;51.908;10.418;2023-07-31T08:28:49;8.98;;;4.43;;
39994;SDS011;25686;51.908;10.418;2023-07-31T08:30:50;7.60;;;3.58;;
39994;SDS011;25686;51.908;10.418;2023-07-31T08:32:51;8.40;;;3.90;;
39994;SDS011;25686;51.908;10.418;2023-07-31T08:34:52;8.23;;;3.28;;
39994;SDS011;25686;51.908;10.418;2023-07-31T08:36:53;7.47;;;3.38;;
39994;SDS011;25686;51.908;10.418;2023-07-31T08:38:54;9.20;;;3.45;;
39994;SDS011;25686;51.908;10.418;2023-07-31T08:40:58;9.90;;;3.72;;
39994;SDS011;25686;51.908;10.418;2023-07-31T08:42:59;7.80;;;3.38;;
39994;SDS011;25686;51.908;10.418;2023-07-31T08:45:02;8.25;;;3.67;;
39994;SDS011;25686;51.908;10.418;2023-07-31T08:47:04;7.72;;;3.38;;
39994;SDS011;25686;51.908;10.418;2023-07-31T08:49:05;7.35;;;3.50;;
39994;SDS011;25686;51.908;10.418;2023-07-31T08:51:06;7.18;;;3.67;;
39994;SDS011;25686;51.908;10.418;2023-07-31T08:53:07;6.78;;;3.20;;
39994;SDS011;25686;51.908;10.418;2023-07-31T08:55:08;7.38;;;2.92;;
39994;SDS011;25686;51.908;10.418;2023-07-31T08:57:09;5.57;;;3.35;;
39994;SDS011;25686;51.908;10.418;2023-07-31T08:59:12;5.90;;;3.25;;
39994;SDS011;25686;51.908;10.418;2023-07-31T09:01:14;6.85;;;3.28;;
39994;SDS011;25686;51.908;10.418;2023-07-31T09:03:17;7.38;;;2.97;;
39994;SDS011;25686;51.908;10.418;2023-07-31T09:05:18;7.88;;;2.92;;
39994;SDS011;25686;51.908;10.418;2023-07-31T09:07:19;8.07;;;3.13;;
39994;SDS011;25686;51.908;10.418;2023-07-31T09:09:21;3.63;;;2.38;;
39994;SDS011;25686;51.908;10.418;2023-07-31T09:11:22;4.90;;;2.13;;
39994;SDS011;25686;51.908;10.418;2023-07-31T09:13:24;3.35;;;2.00;;
39994;SDS011;25686;51.908;10.418;2023-07-31T09:15:25;3.05;;;1.77;;
39994;SDS011;25686;51.908;10.418;2023-07-31T09:17:32;5.28;;;1.92;;
39994;SDS011;25686;51.908;10.418;2023-07-31T09:19:35;4.18;;;1.95;;
39994;SDS011;25686;51.908;10.418;2023-07-31T09:21:47;2.70;;;1.80;;
39994;SDS011;25686;51.908;10.418;2023-07-31T09:23:49;2.47;;;1.60;;
39994;SDS011;25686;51.908;10.418;2023-07-31T09:25:52;2.30;;;1.60;;
39994;SDS011;25686;51.908;10.418;2023-07-31T09:30:03;3.20;;;2.08;;
39994;SDS011;25686;51.908;10.418;2023-07-31T09:32:04;5.10;;;2.00;;
39994;SDS011;25686;51.908;10.418;2023-07-31T09:34:16;4.88;;;2.63;;
39994;SDS011;25686;51.908;10.418;2023-07-31T09:36:17;4.75;;;2.60;;
39994;SDS011;25686;51.908;10.418;2023-07-31T09:38:18;6.68;;;3.10;;
39994;SDS011;25686;51.908;10.418;2023-07-31T09:42:30;5.88;;;3.00;;
39994;SDS011;25686;51.908;10.418;2023-07-31T09:44:38;7.80;;;3.30;;
39994;SDS011;25686;51.908;10.418;2023-07-31T09:46:42;6.20;;;3.22;;
39994;SDS011;25686;51.908;10.418;2023-07-31T09:48:43;5.75;;;3.20;;
39994;SDS011;25686;51.908;10.418;2023-07-31T09:50:45;4.53;;;2.95;;
39994;SDS011;25686;51.908;10.418;2023-07-31T09:52:46;4.35;;;2.95;;
39994;SDS011;25686;51.908;10.418;2023-07-31T09:54:47;5.40;;;3.10;;
39994;SDS011;25686;51.908;10.418;2023-07-31T09:56:48;4.90;;;2.60;;
39994;SDS011;25686;51.908;10.418;2023-07-31T09:58:49;5.18;;;2.83;;
39994;SDS011;25686;51.908;10.418;2023-07-31T10:00:51;8.20;;;3.10;;
39994;SDS011;25686;51.908;10.418;2023-07-31T10:02:52;4.75;;;2.75;;
39994;SDS011;25686;51.908;10.418;2023-07-31T10:04:54;5.30;;;3.03;;
39994;SDS011;25686;51.908;10.418;2023-07-31T10:06:56;6.05;;;2.90;;
39994;SDS011;25686;51.908;10.418;2023-07-31T10:08:59;4.35;;;3.10;;
39994;SDS011;25686;51.908;10.418;2023-07-31T10:11:00;5.47;;;3.20;;
39994;SDS011;25686;51.908;10.418;2023-07-31T10:13:02;5.68;;;3.28;;
39994;SDS011;25686;51.908;10.418;2023-07-31T10:15:05;5.43;;;3.20;;
39994;SDS011;25686;51.908;10.418;2023-07-31T10:17:06;5.65;;;3.10;;
39994;SDS011;25686;51.908;10.418;2023-07-31T10:19:08;6.82;;;3.05;;
39994;SDS011;25686;51.908;10.418;2023-07-31T10:21:10;6.93;;;3.10;;
39994;SDS011;25686;51.908;10.418;2023-07-31T10:23:11;6.80;;;3.03;;
39994;SDS011;25686;51.908;10.418;2023-07-31T10:25:13;8.25;;;3.03;;
39994;SDS011;25686;51.908;10.418;2023-07-31T10:27:16;5.15;;;2.63;;
39994;SDS011;25686;51.908;10.418;2023-07-31T10:29:17;6.10;;;2.67;;
39994;SDS011;25686;51.908;10.418;2023-07-31T10:31:18;4.90;;;3.00;;
39994;SDS011;25686;51.908;10.418;2023-07-31T10:33:19;15.52;;;3.35;;
39994;SDS011;25686;51.908;10.418;2023-07-31T10:35:20;7.45;;;2.92;;
39994;SDS011;25686;51.908;10.418;2023-07-31T10:39:43;6.65;;;2.78;;
39994;SDS011;25686;51.908;10.418;2023-07-31T10:41:44;5.78;;;2.80;;
39994;SDS011;25686;51.908;10.418;2023-07-31T10:43:46;3.25;;;2.38;;
39994;SDS011;25686;51.908;10.418;2023-07-31T10:45:47;5.00;;;2.28;;
39994;SDS011;25686;51.908;10.418;2023-07-31T10:47:49;5.80;;;3.05;;
39994;SDS011;25686;51.908;10.418;2023-07-31T10:49:50;7.15;;;3.08;;
39994;SDS011;25686;51.908;10.418;2023-07-31T10:51:51;6.55;;;2.40;;
39994;SDS011;25686;51.908;10.418;2023-07-31T10:54:10;6.32;;;2.80;;
39994;SDS011;25686;51.908;10.418;2023-07-31T10:56:11;4.60;;;2.60;;
39994;SDS011;25686;51.908;10.418;2023-07-31T10:58:14;5.18;;;2.58;;
39994;SDS011;25686;51.908;10.418;2023-07-31T11:02:26;4.22;;;2.35;;
39994;SDS011;25686;51.908;10.418;2023-07-31T11:04:30;8.55;;;3.10;;
39994;SDS011;25686;51.908;10.418;2023-07-31T11:06:32;4.75;;;2.72;;
39994;SDS011;25686;51.908;10.418;2023-07-31T11:08:44;4.60;;;2.60;;
39994;SDS011;25686;51.908;10.418;2023-07-31T11:10:45;5.20;;;2.70;;
39994;SDS011;25686;51.908;10.418;2023-07-31T11:12:47;5.90;;;2.65;;
39994;SDS011;25686;51.908;10.418;2023-07-31T11:14:53;5.93;;;2.72;;
39994;SDS011;25686;51.908;10.418;2023-07-31T11:16:54;3.67;;;2.35;;
39994;SDS011;25686;51.908;10.418;2023-07-31T11:18:55;6.43;;;2.60;;
39994;SDS011;25686;51.908;10.418;2023-07-31T11:20:56;8.80;;;3.25;;
39994;SDS011;25686;51.908;10.418;2023-07-31T11:22:58;7.68;;;2.75;;
39994;SDS011;25686;51.908;10.418;2023-07-31T11:24:59;7.57;;;2.53;;
39994;SDS011;25686;51.908;10.418;2023-07-31T11:27:07;3.72;;;2.42;;
39994;SDS011;25686;51.908;10.418;2023-07-31T11:29:11;3.78;;;2.47;;
39994;SDS011;25686;51.908;10.418;2023-07-31T11:31:12;3.67;;;2.58;;
39994;SDS011;25686;51.908;10.418;2023-07-31T11:33:13;4.45;;;2.30;;
39994;SDS011;25686;51.908;10.418;2023-07-31T11:35:14;5.57;;;2.53;;
39994;SDS011;25686;51.908;10.418;2023-07-31T11:37:15;5.78;;;2.85;;
39994;SDS011;25686;51.908;10.418;2023-07-31T11:39:16;4.45;;;2.50;;
39994;SDS011;25686;51.908;10.418;2023-07-31T11:41:18;6.25;;;2.38;;
39994;SDS011;25686;51.908;10.418;2023-07-31T11:43:20;4.28;;;2.50;;
39994;SDS011;25686;51.908;10.418;2023-07-31T11:45:21;4.35;;;2.40;;
39994;SDS011;25686;51.908;10.418;2023-07-31T11:47:25;5.55;;;2.60;;
39994;SDS011;25686;51.908;10.418;2023-07-31T11:49:26;4.18;;;2.30;;
39994;SDS011;25686;51.908;10.418;2023-07-31T11:51:27;4.28;;;2.75;;
39994;SDS011;25686;51.908;10.418;2023-07-31T11:55:33;4.85;;;2.72;;
39994;SDS011;25686;51.908;10.418;2023-07-31T11:57:34;4.05;;;2.50;;
39994;SDS011;25686;51.908;10.418;2023-07-31T11:59:35;3.65;;;2.67;;
39994;SDS011;25686;51.908;10.418;2023-07-31T12:01:36;5.85;;;2.80;;
39994;SDS011;25686;51.908;10.418;2023-07-31T12:03:37;5.63;;;2.80;;
39994;SDS011;25686;51.908;10.418;2023-07-31T12:05:38;4.50;;;2.80;;
39994;SDS011;25686;51.908;10.418;2023-07-31T12:07:46;4.75;;;2.40;;
39994;SDS011;25686;51.908;10.418;2023-07-31T12:09:51;4.32;;;2.55;;
39994;SDS011;25686;51.908;10.418;2023-07-31T12:11:52;5.85;;;2.72;;
39994;SDS011;25686;51.908;10.418;2023-07-31T12:13:53;4.90;;;2.92;;
39994;SDS011;25686;51.908;10.418;2023-07-31T12:15:58;8.10;;;2.95;;